Time,TemperatureF,DewpointF,PressureIn,WindDirection,WindDirectionDegrees,WindSpeedMPH,WindSpeedGustMPH,Humidity,HourlyPrecipIn,Conditions,Clouds,dailyrainin,SolarRadiationWatts/m^2,SoftwareType,DateUTC
2014-03-05 08:13:00,61.0,40.0,-100.00,NNE,29,3.0,5.0,46,-99.99,,,0.00,154.000000,,2014-03-05 16:13:00,
2014-03-05 08:23:00,61.0,40.0,-100.00,NNE,29,3.0,5.0,46,-99.99,,,0.00,154.000000,,2014-03-05 16:23:00,
2014-03-05 08:33:00,61.0,40.0,-100.00,NNE,29,3.0,5.0,46,-99.99,,,0.00,154.000000,,2014-03-05 16:33:00,
2014-03-05 08:43:00,61.0,40.0,-100.00,NNE,29,3.0,5.0,46,-99.99,,,0.00,154.000000,,2014-03-05 16:43:00,
2014-03-05 09:12:00,67.0,41.0,-100.00,North,9,5.0,8.0,39,0.00,,,0.00,62.000000,,2014-03-05 17:12:00,
2014-03-05 09:22:00,67.0,41.0,-100.00,North,9,5.0,8.0,39,0.00,,,0.00,62.000000,,2014-03-05 17:22:00,
2014-03-05 09:32:00,67.0,41.0,-100.00,North,9,5.0,8.0,39,0.00,,,0.00,62.000000,,2014-03-05 17:32:00,
2014-03-05 09:42:00,67.0,41.0,-100.00,North,9,5.0,8.0,39,0.00,,,0.00,62.000000,,2014-03-05 17:42:00,
2014-03-05 10:12:00,74.0,42.0,-100.00,North,9,7.0,11.0,32,0.00,,,0.00,53.000000,,2014-03-05 18:12:00,
2014-03-05 10:22:00,74.0,42.0,-100.00,North,9,7.0,11.0,32,0.00,,,0.00,53.000000,,2014-03-05 18:22:00,
2014-03-05 10:32:00,74.0,42.0,-100.00,North,9,7.0,11.0,32,0.00,,,0.00,53.000000,,2014-03-05 18:32:00,
2014-03-05 10:43:00,74.0,42.0,-100.00,North,9,7.0,11.0,32,0.00,,,0.00,53.000000,,2014-03-05 18:43:00,
2014-03-05 11:11:00,78.0,39.0,-100.00,North,355,10.0,15.0,25,0.00,,,0.00,697.000000,,2014-03-05 19:11:00,
2014-03-05 11:22:00,78.0,39.0,-100.00,North,355,10.0,15.0,25,0.00,,,0.00,697.000000,,2014-03-05 19:22:00,
2014-03-05 11:32:00,78.0,39.0,-100.00,North,355,10.0,15.0,25,0.00,,,0.00,697.000000,,2014-03-05 19:32:00,
2014-03-05 11:42:00,78.0,39.0,-100.00,North,355,10.0,15.0,25,0.00,,,0.00,697.000000,,2014-03-05 19:42:00,
2014-03-05 12:22:00,80.0,38.0,-100.00,North,349,9.0,16.0,22,0.00,,,0.00,307.000000,,2014-03-05 20:22:00,
2014-03-05 12:32:00,80.0,38.0,-100.00,North,349,9.0,16.0,22,0.00,,,0.00,307.000000,,2014-03-05 20:32:00,
2014-03-05 12:42:00,80.0,38.0,-100.00,North,349,9.0,16.0,22,0.00,,,0.00,307.000000,,2014-03-05 20:42:00,
2014-03-05 13:11:00,82.0,37.0,-100.00,North,7,9.0,15.0,20,0.00,,,0.00,259.000000,,2014-03-05 21:11:00,
2014-03-05 13:22:00,82.0,37.0,-100.00,North,7,9.0,15.0,20,0.00,,,0.00,259.000000,,2014-03-05 21:22:00,
2014-03-05 13:33:00,82.0,37.0,-100.00,North,7,9.0,15.0,20,0.00,,,0.00,259.000000,,2014-03-05 21:33:00,
2014-03-05 13:43:00,82.0,37.0,-100.00,North,7,9.0,15.0,20,0.00,,,0.00,259.000000,,2014-03-05 21:43:00,
2014-03-05 14:23:00,83.0,29.0,-100.00,North,358,9.0,15.0,14,0.00,,,0.00,539.000000,,2014-03-05 22:23:00,
2014-03-05 14:33:00,83.0,29.0,-100.00,North,358,9.0,15.0,14,0.00,,,0.00,539.000000,,2014-03-05 22:33:00,
2014-03-05 14:43:00,83.0,29.0,-100.00,North,358,9.0,15.0,14,0.00,,,0.00,539.000000,,2014-03-05 22:43:00,
2014-03-05 15:12:00,83.0,29.0,-100.00,North,352,7.0,12.0,14,0.00,,,0.00,154.000000,,2014-03-05 23:12:00,
2014-03-05 15:21:00,83.0,29.0,-100.00,North,352,7.0,12.0,14,0.00,,,0.00,154.000000,,2014-03-05 23:21:00,
2014-03-05 15:32:00,83.0,29.0,-100.00,North,352,7.0,12.0,14,0.00,,,0.00,154.000000,,2014-03-05 23:32:00,
2014-03-05 15:42:00,83.0,29.0,-100.00,North,352,7.0,12.0,14,0.00,,,0.00,154.000000,,2014-03-05 23:42:00,
2014-03-05 16:12:00,85.0,27.0,-100.00,North,359,6.0,11.0,12,0.00,,,0.00,136.000000,,2014-03-06 00:12:00,
2014-03-05 16:22:00,85.0,27.0,-100.00,North,359,6.0,11.0,12,0.00,,,0.00,136.000000,,2014-03-06 00:22:00,
2014-03-05 16:32:00,85.0,27.0,-100.00,North,359,6.0,11.0,12,0.00,,,0.00,136.000000,,2014-03-06 00:32:00,
2014-03-05 16:42:00,85.0,27.0,-100.00,North,359,6.0,11.0,12,0.00,,,0.00,136.000000,,2014-03-06 00:42:00,
2014-03-05 17:11:00,83.0,27.0,-100.00,NNW,335,5.0,10.0,13,0.00,,,0.00,146.000000,,2014-03-06 01:11:00,
2014-03-05 17:22:00,83.0,27.0,-100.00,NNW,335,5.0,10.0,13,0.00,,,0.00,146.000000,,2014-03-06 01:22:00,
2014-03-05 17:32:00,83.0,27.0,-100.00,NNW,335,5.0,10.0,13,0.00,,,0.00,146.000000,,2014-03-06 01:32:00,
2014-03-05 17:42:00,83.0,27.0,-100.00,NNW,335,5.0,10.0,13,0.00,,,0.00,146.000000,,2014-03-06 01:42:00,
2014-03-05 18:22:00,75.0,34.0,-100.00,NNW,334,4.0,8.0,22,0.00,,,0.00,35.000000,,2014-03-06 02:22:00,
2014-03-05 18:32:00,75.0,34.0,-100.00,NNW,334,4.0,8.0,22,0.00,,,0.00,35.000000,,2014-03-06 02:32:00,
2014-03-05 18:42:00,75.0,34.0,-100.00,NNW,334,4.0,8.0,22,0.00,,,0.00,35.000000,,2014-03-06 02:42:00,
2014-03-05 22:42:00,59.0,41.0,-100.00,SSE,160,4.0,5.0,52,-99.99,,,0.00,0.000000,,2014-03-06 06:42:00,
2014-03-05 23:11:00,60.0,40.0,-100.00,SE,125,3.0,5.0,47,0.00,,,0.00,0.000000,,2014-03-06 07:11:00,
2014-03-05 23:22:00,60.0,40.0,-100.00,SE,125,3.0,5.0,47,0.00,,,0.00,0.000000,,2014-03-06 07:22:00,
2014-03-05 23:32:00,60.0,40.0,-100.00,SE,125,3.0,5.0,47,0.00,,,0.00,0.000000,,2014-03-06 07:32:00,
2014-03-05 23:42:00,60.0,40.0,-100.00,SE,125,3.0,5.0,47,0.00,,,0.00,0.000000,,2014-03-06 07:42:00,